Time;durP1;ratioP1;P1;durP2;ratioP2;P2;SDS_P1;SDS_P2;PMS_P1;PMS_P2;Temp;Humidity;BMP_temperature;BMP_pressure;BME280_temperature;BME280_humidity;BME280_pressure;Samples;Min_cycle;Max_cycle;Signal;HPM_P1;HPM_P2
2023/08/20 00:06:25;;;;;;;21.60;19.40;;;;;;;20.45;89.35;99745.17;435339;1253;140220;-62
2023/08/20 00:16:33;;;;;;;20.30;18.40;;;;;;;20.37;90.28;99748.98;435586;1257;140386;-63
2023/08/20 00:26:40;;;;;;;25.00;20.90;;;;;;;20.30;90.84;99746.54;435153;1254;140901;-63
2023/08/20 00:36:46;;;;;;;21.20;19.20;;;;;;;20.20;90.98;99743.41;435605;1254;140797;-62
2023/08/20 00:46:53;;;;;;;20.90;18.40;;;;;;;20.07;91.38;99737.44;435341;1254;140485;-61
2023/08/20 00:57:02;;;;;;;21.30;19.10;;;;;;;19.95;92.05;99742.55;435343;1253;141195;-63
2023/08/20 01:07:16;;;;;;;22.40;20.00;;;;;;;19.85;93.87;99740.11;435451;1253;140405;-63
2023/08/20 01:17:27;;;;;;;21.60;19.50;;;;;;;19.81;95.34;99741.98;434992;1253;139460;-63
2023/08/20 01:27:45;;;;;;;21.80;19.80;;;;;;;19.77;96.32;99740.39;434952;1257;140686;-61
2023/08/20 01:37:49;;;;;;;;;;;;;;;19.72;96.57;99744.31;435808;1253;139877;-63
2023/08/20 01:47:55;;;;;;;21.20;19.20;;;;;;;19.65;96.72;99740.86;435933;1257;125748;-63
2023/08/20 01:58:01;;;;;;;20.40;18.60;;;;;;;19.57;97.17;99744.18;435433;1257;140011;-62
2023/08/20 02:08:10;;;;;;;18.30;16.70;;;;;;;19.50;97.63;99745.36;435378;1253;141902;-63
2023/08/20 02:18:16;;;;;;;20.20;18.40;;;;;;;19.41;97.79;99746.42;435267;1257;139504;-62
2023/08/20 02:28:22;;;;;;;17.90;16.40;;;;;;;19.35;98.04;99745.42;435176;1256;140838;-63
2023/08/20 02:38:28;;;;;;;18.20;16.40;;;;;;;19.24;97.89;99747.21;435050;1254;141500;-64
2023/08/20 02:48:34;;;;;;;19.10;17.30;;;;;;;19.13;98.14;99747.60;435109;1253;140140;-62
2023/08/20 02:58:40;;;;;;;18.90;17.10;;;;;;;19.04;98.27;99749.36;435216;1253;139787;-62
2023/08/20 03:08:46;;;;;;;18.60;16.90;;;;;;;18.97;99.19;99746.64;434883;1254;139455;-62
2023/08/20 03:18:52;;;;;;;18.70;16.90;;;;;;;18.89;99.22;99754.30;435215;1256;140106;-63
2023/08/20 03:28:58;;;;;;;19.90;16.80;;;;;;;18.83;99.45;99751.98;435204;1256;139981;-62
2023/08/20 03:39:05;;;;;;;18.70;17.00;;;;;;;18.80;99.61;99757.35;435570;1257;140524;-61
2023/08/20 03:49:11;;;;;;;18.40;16.70;;;;;;;18.81;99.91;99760.19;435365;1253;139847;-65
2023/08/20 03:59:17;;;;;;;18.60;16.90;;;;;;;18.87;100.00;99765.61;435046;1253;139318;-62
2023/08/20 04:09:22;;;;;;;20.10;18.20;;;;;;;19.02;100.00;99767.60;435280;1253;140156;-63
2023/08/20 04:19:29;;;;;;;21.20;19.10;;;;;;;19.28;100.00;99770.61;435349;1256;139759;-62
2023/08/20 04:29:35;;;;;;;22.10;20.10;;;;;;;19.68;100.00;99769.52;436186;1257;139453;-63
2023/08/20 04:39:41;;;;;;;18.40;16.70;;;;;;;20.20;100.00;99781.80;435125;1257;140340;-62
2023/08/20 04:49:47;;;;;;;18.10;16.60;;;;;;;20.80;100.00;99783.35;434936;1253;139919;-62
2023/08/20 04:59:53;;;;;;;19.30;17.50;;;;;;;21.43;99.42;99788.05;435441;1257;139752;-63
2023/08/20 05:09:59;;;;;;;18.10;16.20;;;;;;;22.05;97.75;99804.61;435145;1256;139443;-62
2023/08/20 05:20:06;;;;;;;15.20;13.90;;;;;;;24.47;99.50;99801.26;434996;1257;139417;-62
2023/08/20 05:30:13;;;;;;;14.90;13.60;;;;;;;29.37;90.93;99815.41;435330;1257;140386;-63
2023/08/20 05:40:20;;;;;;;13.00;11.80;;;;;;;33.44;76.64;99815.13;434981;1257;139352;-63
2023/08/20 05:50:26;;;;;;;13.00;12.00;;;;;;;37.15;64.42;99815.02;435684;1257;140023;-62
2023/08/20 06:00:33;;;;;;;13.00;12.00;;;;;;;40.26;54.64;99813.46;434929;1259;138938;-63
2023/08/20 06:10:39;;;;;;;12.40;11.40;;;;;;;43.71;47.66;99819.42;435090;1256;139572;-63
2023/08/20 06:20:45;;;;;;;12.60;11.70;;;;;;;46.46;40.50;99823.34;435110;1257;138641;-63
2023/08/20 06:30:51;;;;;;;11.10;10.10;;;;;;;48.34;35.83;99823.22;435031;1257;139431;-62
2023/08/20 06:40:58;;;;;;;10.50;9.70;;;;;;;50.56;32.18;99827.68;435134;1255;139567;-63
2023/08/20 06:51:13;;;;;;;11.00;10.30;;;;;;;52.39;28.62;99836.84;434950;1257;139510;-64
2023/08/20 07:01:20;;;;;;;10.00;9.20;;;;;;;53.41;26.42;99842.45;435463;1257;138596;-62
2023/08/20 07:11:26;;;;;;;11.00;10.30;;;;;;;55.12;24.59;99843.67;435218;1256;138454;-63
2023/08/20 07:21:32;;;;;;;9.90;9.40;;;;;;;56.57;22.78;99845.71;435170;1253;140535;-63
2023/08/20 07:31:38;;;;;;;11.60;10.70;;;;;;;57.75;21.13;99852.44;435413;1256;138669;-63
2023/08/20 07:41:44;;;;;;;12.10;11.40;;;;;;;58.36;20.01;99855.98;436651;1256;138577;-64
2023/08/20 07:51:52;;;;;;;10.90;10.00;;;;;;;59.16;18.80;99858.95;435242;1257;138667;-62
2023/08/20 08:01:58;;;;;;;10.60;10.00;;;;;;;59.83;18.36;99861.19;434880;1258;139346;-63
2023/08/20 08:12:05;;;;;;;10.20;9.70;;;;;;;59.94;17.14;99858.80;434798;1258;138568;-62
2023/08/20 08:22:11;;;;;;;8.10;7.60;;;;;;;59.18;16.81;99849.95;434949;1256;139014;-63
2023/08/20 08:32:16;;;;;;;8.10;7.50;;;;;;;55.53;17.55;99838.41;434870;1254;138431;-62
2023/08/20 08:42:24;;;;;;;10.60;9.80;;;;;;;49.11;20.23;99834.69;435218;1257;139810;-62
2023/08/20 08:52:31;;;;;;;9.50;8.70;;;;;;;44.73;23.55;99840.52;435204;1257;139496;-63
2023/08/20 09:02:37;;;;;;;10.30;9.40;;;;;;;41.91;26.23;99840.63;435741;1256;138854;-62
2023/08/20 09:12:44;;;;;;;10.50;9.40;;;;;;;40.07;28.04;99844.17;435290;1257;138617;-63
2023/08/20 09:22:52;;;;;;;10.30;9.30;;;;;;;38.93;29.68;99845.13;435091;1257;139283;-62
2023/08/20 09:33:11;;;;;;;8.50;7.80;;;;;;;38.19;30.53;99844.55;435382;1256;138446;-62
2023/08/20 09:43:18;;;;;;;11.50;8.20;;;;;;;37.44;31.27;99846.50;435819;1259;139212;-63
2023/08/20 09:53:34;;;;;;;8.80;8.20;;;;;;;36.95;32.00;99854.36;436788;1258;139420;-63
2023/08/20 10:03:42;;;;;;;8.80;8.10;;;;;;;36.31;32.48;99856.91;436757;1257;138342;-61
2023/08/20 10:13:48;;;;;;;10.00;8.90;;;;;;;35.59;33.15;99849.13;435135;1254;138624;-61
2023/08/20 10:23:55;;;;;;;10.90;9.70;;;;;;;34.92;34.13;99841.70;435426;1257;139334;-61
2023/08/20 10:34:01;;;;;;;8.80;8.10;;;;;;;34.42;34.49;99838.69;435730;1259;139889;-62
2023/08/20 10:44:08;;;;;;;10.40;9.50;;;;;;;33.87;35.24;99832.62;435940;1257;138975;-61
2023/08/20 10:54:14;;;;;;;8.50;7.80;;;;;;;33.49;36.53;99825.61;435619;1256;139725;-61
2023/08/20 11:04:21;;;;;;;6.80;6.30;;;;;;;33.39;37.12;99824.22;435958;1257;138604;-61
2023/08/20 11:14:27;;;;;;;7.60;7.00;;;;;;;33.38;36.97;99825.34;435533;1257;139463;-63
2023/08/20 11:24:33;;;;;;;8.30;7.50;;;;;;;33.49;37.65;99822.46;435562;1259;138791;-61
2023/08/20 11:34:39;;;;;;;8.30;7.50;;;;;;;33.55;37.75;99817.61;435250;1257;138475;-61
2023/08/20 11:44:49;;;;;;;6.50;5.90;;;;;;;33.36;37.39;99816.11;435032;1254;138260;-61
2023/08/20 11:54:54;;;;;;;7.00;6.50;;;;;;;33.29;37.25;99816.41;434993;1254;139667;-61
2023/08/20 12:05:02;;;;;;;7.00;6.30;;;;;;;33.24;37.59;99812.68;434982;1254;138410;-62
2023/08/20 12:15:09;;;;;;;8.00;7.30;;;;;;;32.98;37.39;99811.96;435321;1257;137303;-61
2023/08/20 12:25:15;;;;;;;9.10;7.30;;;;;;;32.32;37.99;99812.80;435461;1257;139908;-61
2023/08/20 12:35:21;;;;;;;6.30;5.80;;;;;;;31.95;38.61;99812.50;435215;1257;139556;-62
2023/08/20 12:45:27;;;;;;;6.50;6.00;;;;;;;31.72;38.61;99811.75;435419;1254;138449;-61
2023/08/20 12:55:33;;;;;;;5.60;5.10;;;;;;;31.71;38.59;99805.75;435336;1257;138423;-61
2023/08/20 13:05:40;;;;;;;6.90;5.20;;;;;;;31.70;38.31;99802.52;435342;1257;138332;-61
2023/08/20 13:15:47;;;;;;;5.30;4.80;;;;;;;31.64;38.16;99800.10;435716;1257;138284;-61
2023/08/20 13:25:53;;;;;;;5.30;4.90;;;;;;;31.47;38.28;99798.36;436089;1253;139747;-62
2023/08/20 13:36:00;;;;;;;5.20;4.80;;;;;;;31.34;38.68;99794.69;435760;1254;138683;-61
2023/08/20 13:46:07;;;;;;;5.70;5.30;;;;;;;31.35;39.32;99790.95;435421;1257;139020;-60
2023/08/20 13:56:13;;;;;;;6.60;6.00;;;;;;;31.39;39.48;99785.09;435713;1257;138704;-62
2023/08/20 14:06:19;;;;;;;7.10;6.30;;;;;;;31.32;39.56;99782.86;435226;1257;138649;-61
2023/08/20 14:16:25;;;;;;;6.50;5.90;;;;;;;31.24;39.72;99780.43;435341;1254;138395;-62
2023/08/20 14:26:31;;;;;;;6.50;5.40;;;;;;;31.19;39.94;99780.23;435527;1256;140851;-61
2023/08/20 14:36:37;;;;;;;8.60;6.20;;;;;;;31.10;40.06;99772.12;434790;1257;139852;-62
2023/08/20 14:46:42;;;;;;;6.50;6.00;;;;;;;31.09;40.32;99766.59;435172;1254;198975;-61
2023/08/20 14:56:48;;;;;;;5.50;5.00;;;;;;;31.05;40.41;99758.92;435393;1254;138240;-61
2023/08/20 15:06:54;;;;;;;6.10;5.60;;;;;;;31.16;40.70;99759.31;435178;1256;141131;-60
2023/08/20 15:17:00;;;;;;;5.80;5.40;;;;;;;31.46;40.23;99747.88;434818;1257;139477;-62
2023/08/20 15:27:06;;;;;;;5.70;5.00;;;;;;;31.63;39.97;99737.55;434769;1257;138917;-61
2023/08/20 15:37:12;;;;;;;6.00;5.50;;;;;;;31.61;40.16;99732.19;435056;1257;139430;-62
2023/08/20 15:47:18;;;;;;;7.10;6.40;;;;;;;31.46;40.00;99730.35;435353;1257;138923;-61
2023/08/20 15:57:24;;;;;;;8.20;5.00;;;;;;;31.24;40.06;99728.17;435458;1254;138706;-62
2023/08/20 16:07:30;;;;;;;8.00;6.10;;;;;;;30.95;40.44;99726.95;435330;1254;138591;-62
2023/08/20 16:17:36;;;;;;;8.20;5.70;;;;;;;30.72;41.24;99729.46;435434;1257;138325;-61
2023/08/20 16:27:43;;;;;;;5.20;4.80;;;;;;;30.47;41.81;99731.23;435468;1255;138824;-62
2023/08/20 16:37:49;;;;;;;8.30;7.30;;;;;;;30.19;42.08;99735.55;435097;1254;138574;-62
2023/08/20 16:47:55;;;;;;;5.80;5.40;;;;;;;29.94;42.72;99744.03;435170;1254;139695;-63
2023/08/20 16:58:01;;;;;;;12.40;10.10;;;;;;;29.72;43.27;99750.97;435426;1253;139940;-62
2023/08/20 17:08:08;;;;;;;7.50;6.00;;;;;;;30.11;44.08;99751.87;435458;1254;138598;-62
2023/08/20 17:18:14;;;;;;;6.00;5.40;;;;;;;29.86;44.64;99753.33;435701;1254;139863;-62
2023/08/20 17:28:19;;;;;;;11.80;6.20;;;;;;;29.27;46.35;99752.96;435201;1257;140008;-61
2023/08/20 17:38:25;;;;;;;9.20;6.60;;;;;;;28.67;48.62;99746.44;435350;1257;138272;-61
2023/08/20 17:48:31;;;;;;;8.30;6.40;;;;;;;28.07;50.58;99751.15;435391;1257;138142;-61
2023/08/20 17:58:38;;;;;;;12.00;7.20;;;;;;;27.50;52.03;99762.05;435394;1257;139603;-64
2023/08/20 18:08:44;;;;;;;11.20;7.60;;;;;;;26.98;53.86;99787.14;435932;1254;138540;-62
2023/08/20 18:18:50;;;;;;;14.20;8.70;;;;;;;26.51;55.61;99798.13;435505;1254;138947;-62
2023/08/20 18:28:57;;;;;;;11.60;8.80;;;;;;;26.10;57.44;99807.89;435564;1256;139532;-62
2023/08/20 18:39:04;;;;;;;11.80;8.70;;;;;;;25.73;59.28;99824.83;435443;1254;138726;-63
2023/08/20 18:49:10;;;;;;;14.00;9.70;;;;;;;25.48;61.06;99841.29;435509;1256;139622;-62
2023/08/20 18:59:16;;;;;;;15.00;9.50;;;;;;;25.37;62.71;99850.20;435720;1254;139864;-64
2023/08/20 19:09:22;;;;;;;7.70;6.70;;;;;;;25.28;63.25;99888.14;435324;1256;139100;-62
2023/08/20 19:19:27;;;;;;;4.80;4.20;;;;;;;25.29;61.40;99888.92;435252;1253;140205;-61
2023/08/20 19:29:33;;;;;;;4.50;4.10;;;;;;;25.26;59.37;99881.23;435295;1254;139493;-62
2023/08/20 19:39:40;;;;;;;4.50;4.10;;;;;;;25.21;59.65;99869.28;435394;1252;138174;-62
2023/08/20 19:49:47;;;;;;;4.70;4.30;;;;;;;25.09;60.72;99879.21;435338;1254;138646;-61
2023/08/20 19:59:54;;;;;;;5.30;4.90;;;;;;;24.93;62.00;99881.90;435235;1257;139882;-62
2023/08/20 20:10:00;;;;;;;3.60;2.90;;;;;;;24.77;62.17;99870.66;435563;1257;138853;-62
2023/08/20 20:20:11;;;;;;;2.80;2.60;;;;;;;24.63;61.85;99863.15;435580;1257;139369;-63
2023/08/20 20:30:17;;;;;;;4.80;3.00;;;;;;;24.51;62.40;99870.78;435578;1256;141061;-63
2023/08/20 20:40:23;;;;;;;6.00;4.50;;;;;;;24.42;63.43;99872.78;435396;1254;139289;-62
2023/08/20 20:50:29;;;;;;;6.90;5.10;;;;;;;24.29;63.97;99873.08;435285;1253;138919;-61
2023/08/20 21:00:35;;;;;;;7.00;5.80;;;;;;;24.11;64.97;99867.81;435175;1253;142516;-62
2023/08/20 21:10:42;;;;;;;5.00;4.60;;;;;;;23.82;65.90;99863.42;435346;1255;138969;-61
2023/08/20 21:20:48;;;;;;;5.00;4.50;;;;;;;23.49;66.68;99865.05;435361;1253;140998;-61
2023/08/20 21:30:57;;;;;;;12.70;7.40;;;;;;;23.19;67.46;99882.87;435185;1254;140314;-62
2023/08/20 21:41:03;;;;;;;6.90;4.60;;;;;;;22.93;68.56;99886.45;435199;1253;140495;-62
2023/08/20 21:51:09;;;;;;;6.90;5.00;;;;;;;22.70;69.70;99886.48;435441;1254;139462;-62
2023/08/20 22:01:15;;;;;;;5.50;4.80;;;;;;;22.42;70.37;99885.52;435183;1255;139493;-63
2023/08/20 22:11:24;;;;;;;8.10;6.20;;;;;;;22.17;71.33;99888.27;435814;1257;140702;-63
2023/08/20 22:21:29;;;;;;;4.80;4.30;;;;;;;22.00;72.73;99894.23;435797;1257;139994;-62
2023/08/20 22:31:35;;;;;;;5.40;4.90;;;;;;;21.80;73.60;99896.30;435503;1257;139715;-61
2023/08/20 22:41:41;;;;;;;7.70;4.90;;;;;;;21.63;74.29;99902.15;435713;1253;141413;-61
2023/08/20 22:51:47;;;;;;;5.10;4.70;;;;;;;21.50;75.42;99905.17;435336;1257;140117;-62
2023/08/20 23:01:53;;;;;;;6.80;4.60;;;;;;;21.33;76.43;99908.70;435271;1253;139633;-62
2023/08/20 23:11:58;;;;;;;5.40;3.80;;;;;;;21.17;77.00;99908.26;435490;1257;138934;-61
2023/08/20 23:22:04;;;;;;;20.50;5.60;;;;;;;20.99;77.67;99910.98;435375;1257;139688;-62
2023/08/20 23:32:10;;;;;;;6.80;4.40;;;;;;;20.88;78.66;99910.50;435473;1252;139283;-62
2023/08/20 23:42:19;;;;;;;5.80;5.30;;;;;;;20.79;79.37;99910.83;435409;1256;141024;-61
2023/08/20 23:52:24;;;;;;;5.50;4.90;;;;;;;20.66;79.77;99902.73;435204;1257;139426;-63
